Waialua, Hawaii
Current Conditions -  °F | °C
As of 3:39 AM on Friday 28 Nov 2014 (Local Time) from PHHI Reporting Station
Drizzle Drizzle  
Wind Chill: 20°   Ceiling: 2900
Heat Index: 20°   Visibility: 10mi
Dew Point: 15°   Wind: 7mph
Humidity: 73%   Direction: 40°NE
Pressure: 30.04"   Gusts: NA
Location:  21.57°N, 158.12°W
Report Text: PHHI 281339Z AUTO 04006KT 10SM DZ BKN029 OVC037 20/15 A3004 RMK AO2 DZB1324 $
Loading
Personal Weather Stations






























Interactive Weather Map New forecast layout! Learn more

10-Day Weather Forecast

Advertisements
Track Severe Weather on mobile